Rechercher aéroport 
image banner adimage banner adimage banner ad
image banner ad

CA67 - Valley Crop Dusters, Inc

Situé à Westley, United States

ICAO - CA67, IATA -

Données fournies par Airmate  

Information générale

Coordonnées: N37°32'53" W121°12'18"
Élévation : 96 feet MSL.
Variation magnétique : 16° East
Voir autres Aéroports à California

Données opérationnelles

Special qualification required
Heure actuelle UTC:
Heure actuelle locale:
METAR: KMOD 251053Z AUTO 34007KT 10SM CLR 22/06 A2987 RMK AO2 SLP112 T02220061
TAF: KMOD 250533Z 2506/2606 35004KT P6SM SCT200 FM251800 32008KT P6SM SCT200 FM260000 33009KT P6SM BKN250
Voir NOTAMs / SUP AIP / TFR affectant cet aéroport [VIEW]
Fréquences de communication: [VIEW]

Pistes:

Identifiant RWYQFULongueur (ft)Largeur (ft)SurfaceLDA (ft)
03156230ASPH
21156230ASPH

Coordonnées de l'aéroport

Adresse: Westley United States

Vue satellite de CA67